createdAt,value
2023-04-30T00:00:50.561Z,3.20
2023-04-30T00:01:50.581Z,2.10
2023-04-30T00:02:50.665Z,1.40
2023-04-30T00:03:50.687Z,1.80
2023-04-30T00:04:50.621Z,1.90
2023-04-30T00:05:50.547Z,1.30
2023-04-30T00:06:50.570Z,2.30
2023-04-30T00:07:50.564Z,2.50
2023-04-30T00:08:50.554Z,1.60
2023-04-30T00:09:50.546Z,1.20
2023-04-30T00:10:50.551Z,1.70
2023-04-30T00:11:50.541Z,1.60
2023-04-30T00:12:50.533Z,2.10
2023-04-30T00:13:50.529Z,4.10
2023-04-30T00:14:50.560Z,1.80
2023-04-30T00:15:50.637Z,2.30
2023-04-30T00:16:50.753Z,1.30
2023-04-30T00:17:50.605Z,1.90
2023-04-30T00:18:50.516Z,1.50
2023-04-30T00:19:50.576Z,1.60
2023-04-30T00:20:50.519Z,0.90
2023-04-30T00:21:50.501Z,2.70
2023-04-30T00:22:50.507Z,1.30
2023-04-30T00:23:50.491Z,3.20
2023-04-30T00:24:50.507Z,2.40
2023-04-30T00:25:50.498Z,1.70
2023-04-30T00:26:50.514Z,1.30
2023-04-30T00:27:50.498Z,3.50
2023-04-30T00:28:50.484Z,1.30
2023-04-30T00:29:50.485Z,1.10
2023-04-30T00:30:50.480Z,1.70
2023-04-30T00:31:50.507Z,1.40
2023-04-30T00:32:50.551Z,3.00
2023-04-30T00:33:50.580Z,1.80
2023-04-30T00:34:50.476Z,2.00
2023-04-30T00:35:50.499Z,2.20
2023-04-30T00:36:50.460Z,1.70
2023-04-30T00:37:50.472Z,2.30
2023-04-30T00:38:50.472Z,1.90
2023-04-30T00:39:50.494Z,2.20
2023-04-30T00:40:50.455Z,1.80
2023-04-30T00:41:50.456Z,1.20
2023-04-30T00:42:50.455Z,1.20
2023-04-30T00:43:50.451Z,1.20
2023-04-30T00:44:50.476Z,1.80
2023-04-30T00:45:50.481Z,1.30
2023-04-30T00:46:50.464Z,2.50
2023-04-30T00:47:50.480Z,1.10
2023-04-30T00:48:50.449Z,2.30
2023-04-30T00:49:50.430Z,1.00
2023-04-30T00:50:50.443Z,1.20
2023-04-30T00:51:50.434Z,1.90
2023-04-30T00:52:50.441Z,1.60
2023-04-30T00:53:50.426Z,1.30
2023-04-30T00:54:50.410Z,1.80
2023-04-30T00:55:50.420Z,2.00
2023-04-30T00:56:50.420Z,1.30
2023-04-30T00:57:50.416Z,1.50
2023-04-30T00:58:50.417Z,1.70
2023-04-30T00:59:50.405Z,1.70
2023-04-30T01:00:50.416Z,2.00
2023-04-30T01:01:50.410Z,3.80
2023-04-30T01:02:50.513Z,1.60
2023-04-30T01:03:50.517Z,5.50
2023-04-30T01:04:50.401Z,2.80
2023-04-30T01:05:50.371Z,1.30
2023-04-30T01:06:50.384Z,2.00
2023-04-30T01:07:50.397Z,1.20
2023-04-30T01:08:50.369Z,2.80
2023-04-30T01:09:50.375Z,1.20
2023-04-30T01:10:50.359Z,1.00
2023-04-30T01:11:50.406Z,1.20
2023-04-30T01:12:50.376Z,1.40
2023-04-30T01:13:50.359Z,1.90
2023-04-30T01:14:50.349Z,1.70
2023-04-30T01:15:50.371Z,2.10
2023-04-30T01:16:50.357Z,1.90
2023-04-30T01:17:50.396Z,3.70
2023-04-30T01:18:50.423Z,2.30
2023-04-30T01:19:50.330Z,1.40
2023-04-30T01:20:50.351Z,1.20
2023-04-30T01:21:50.335Z,2.00
2023-04-30T01:22:50.335Z,2.10
2023-04-30T01:23:50.343Z,1.60
2023-04-30T01:24:50.349Z,1.90
2023-04-30T01:25:50.324Z,1.50
2023-04-30T01:26:50.335Z,8.80
2023-04-30T01:27:50.324Z,1.20
2023-04-30T01:28:50.315Z,3.70
2023-04-30T01:29:50.299Z,2.00
2023-04-30T01:30:50.324Z,1.50
2023-04-30T01:31:50.454Z,1.20
2023-04-30T01:32:50.400Z,1.70
2023-04-30T01:33:50.291Z,1.00
2023-04-30T01:34:50.287Z,1.30
2023-04-30T01:35:50.277Z,1.60
2023-04-30T01:36:50.297Z,3.40
2023-04-30T01:37:50.291Z,5.70
2023-04-30T01:38:50.283Z,1.10
2023-04-30T01:39:50.316Z,2.10
2023-04-30T01:40:50.292Z,1.90
2023-04-30T01:41:50.301Z,1.60
2023-04-30T01:42:50.280Z,1.80
2023-04-30T01:43:50.275Z,1.00
2023-04-30T01:44:50.274Z,1.90
2023-04-30T01:45:50.330Z,1.60
2023-04-30T01:46:50.273Z,1.50
2023-04-30T01:47:50.305Z,2.10
2023-04-30T01:48:50.257Z,1.70
2023-04-30T01:49:50.265Z,1.20
2023-04-30T01:50:50.263Z,1.90
2023-04-30T01:51:50.257Z,2.30
2023-04-30T01:52:50.260Z,2.20
2023-04-30T01:53:50.257Z,1.10
2023-04-30T01:54:50.258Z,1.60
2023-04-30T01:55:50.287Z,1.10
2023-04-30T01:56:50.264Z,2.10
2023-04-30T01:57:50.216Z,1.30
2023-04-30T01:58:50.244Z,2.00
2023-04-30T01:59:50.228Z,1.40
2023-04-30T02:00:50.251Z,1.40
2023-04-30T02:01:50.281Z,1.00
2023-04-30T02:02:50.298Z,1.40
2023-04-30T02:03:50.362Z,2.70
2023-04-30T02:04:50.209Z,1.50
2023-04-30T02:05:50.249Z,1.30
2023-04-30T02:06:50.222Z,2.30
2023-04-30T02:07:50.198Z,1.30
2023-04-30T02:08:50.207Z,1.20
2023-04-30T02:09:50.199Z,2.40
2023-04-30T02:10:50.206Z,4.00
2023-04-30T02:11:50.216Z,1.50
2023-04-30T02:12:50.182Z,2.30
2023-04-30T02:13:50.200Z,1.40
2023-04-30T02:14:50.187Z,1.30
2023-04-30T02:15:50.216Z,2.00
2023-04-30T02:16:50.186Z,1.40
2023-04-30T02:17:50.230Z,1.40
2023-04-30T02:18:50.185Z,1.30
2023-04-30T02:19:50.169Z,1.40
2023-04-30T02:20:50.175Z,1.30
2023-04-30T02:21:50.147Z,2.70
2023-04-30T02:22:50.176Z,1.10
2023-04-30T02:23:50.141Z,1.40
2023-04-30T02:24:50.156Z,2.00
2023-04-30T02:25:50.135Z,1.30
2023-04-30T02:26:50.147Z,2.40
2023-04-30T02:27:50.146Z,1.00
2023-04-30T02:28:50.123Z,1.30
2023-04-30T02:29:50.126Z,1.20
2023-04-30T02:30:50.137Z,1.70
2023-04-30T02:31:50.146Z,1.20
2023-04-30T02:32:50.159Z,1.40
2023-04-30T02:33:50.118Z,1.40
2023-04-30T02:34:50.130Z,1.90
2023-04-30T02:35:50.102Z,1.20
2023-04-30T02:36:50.128Z,1.50
2023-04-30T02:37:50.110Z,1.70
2023-04-30T02:38:50.109Z,1.40
2023-04-30T02:39:50.104Z,1.40
2023-04-30T02:40:50.106Z,2.90
2023-04-30T02:41:50.101Z,2.00
2023-04-30T02:42:50.092Z,1.10
2023-04-30T02:43:50.099Z,1.10
2023-04-30T02:44:50.096Z,4.50
2023-04-30T02:45:50.203Z,2.10
2023-04-30T02:46:50.091Z,1.30
2023-04-30T02:47:50.115Z,1.20
2023-04-30T02:48:50.084Z,2.00
2023-04-30T02:49:50.074Z,1.40
2023-04-30T02:50:50.069Z,1.10
2023-04-30T02:51:50.062Z,1.70
2023-04-30T02:52:50.048Z,1.90
2023-04-30T02:53:50.058Z,4.80
2023-04-30T02:54:50.062Z,1.70
2023-04-30T02:55:50.040Z,1.10
2023-04-30T02:56:50.054Z,1.10
2023-04-30T02:57:50.057Z,1.50
2023-04-30T02:58:50.036Z,0.90
2023-04-30T02:59:50.088Z,1.60
2023-04-30T03:00:50.047Z,1.10
2023-04-30T03:01:50.096Z,1.70
2023-04-30T03:02:50.163Z,1.20
2023-04-30T03:03:50.019Z,2.10
2023-04-30T03:04:50.025Z,1.40
2023-04-30T03:05:50.043Z,1.40
2023-04-30T03:06:50.029Z,1.70
2023-04-30T03:07:50.004Z,1.90
2023-04-30T03:08:50.016Z,1.60
2023-04-30T03:09:50.009Z,1.10
2023-04-30T03:10:50.015Z,1.30
2023-04-30T03:11:50.022Z,1.50
2023-04-30T03:12:50.013Z,1.50
2023-04-30T03:13:49.998Z,1.10
2023-04-30T03:14:49.995Z,1.00
2023-04-30T03:15:50.001Z,1.60
2023-04-30T03:16:49.976Z,1.50
2023-04-30T03:17:50.006Z,1.80
2023-04-30T03:18:49.966Z,1.40
2023-04-30T03:19:49.997Z,0.90
2023-04-30T03:20:49.973Z,1.10
2023-04-30T03:21:49.983Z,1.80
2023-04-30T03:22:49.982Z,3.80
2023-04-30T03:23:49.961Z,1.00
2023-04-30T03:24:49.955Z,1.70
2023-04-30T03:25:49.959Z,1.70
2023-04-30T03:26:49.964Z,1.20
2023-04-30T03:27:49.977Z,1.20
2023-04-30T03:28:49.950Z,1.20
2023-04-30T03:29:49.958Z,1.10
2023-04-30T03:30:49.944Z,1.20
2023-04-30T03:31:50.037Z,1.20
2023-04-30T03:32:49.953Z,0.90
2023-04-30T03:33:50.013Z,1.10
2023-04-30T03:34:49.928Z,1.10
2023-04-30T03:35:49.928Z,3.70
2023-04-30T03:36:49.939Z,1.40
2023-04-30T03:37:49.964Z,1.20
2023-04-30T03:38:49.908Z,1.00
2023-04-30T03:39:49.903Z,4.00
2023-04-30T03:40:49.916Z,2.30
2023-04-30T03:41:49.925Z,2.70
2023-04-30T03:42:51.336Z,1.60
2023-04-30T03:43:49.899Z,2.10
2023-04-30T03:44:49.912Z,1.30
2023-04-30T03:45:49.931Z,1.10
2023-04-30T03:46:49.884Z,1.20
2023-04-30T03:47:49.967Z,1.10
2023-04-30T03:48:49.883Z,1.20
2023-04-30T03:49:49.894Z,1.90
2023-04-30T03:50:49.883Z,1.60
2023-04-30T03:51:49.884Z,2.30
2023-04-30T03:52:49.872Z,1.00
2023-04-30T03:53:49.882Z,1.10
2023-04-30T03:54:49.865Z,1.60
2023-04-30T03:55:49.877Z,0.90
2023-04-30T03:56:49.859Z,2.00
2023-04-30T03:57:49.872Z,1.50
2023-04-30T03:58:49.870Z,1.80
2023-04-30T03:59:49.860Z,1.50
2023-04-30T04:00:49.870Z,1.10
2023-04-30T04:01:49.927Z,1.00
2023-04-30T04:02:49.865Z,1.50
2023-04-30T04:03:49.901Z,1.30
2023-04-30T04:04:49.841Z,1.50
2023-04-30T04:05:49.865Z,2.80
2023-04-30T04:06:49.824Z,2.10
2023-04-30T04:07:49.833Z,1.40
2023-04-30T04:08:49.834Z,1.10
2023-04-30T04:09:49.838Z,1.40
2023-04-30T04:10:49.829Z,1.40
2023-04-30T04:11:49.814Z,1.60
2023-04-30T04:12:49.833Z,1.40
2023-04-30T04:13:49.842Z,1.00
2023-04-30T04:14:49.824Z,1.60
2023-04-30T04:15:49.943Z,1.00
2023-04-30T04:16:49.815Z,1.20
2023-04-30T04:17:49.889Z,1.90
2023-04-30T04:18:49.804Z,1.30
2023-04-30T04:19:49.821Z,1.00
2023-04-30T04:20:49.804Z,1.40
2023-04-30T04:21:49.799Z,1.40
2023-04-30T04:22:49.790Z,1.60
2023-04-30T04:23:49.820Z,1.00
2023-04-30T04:24:49.799Z,1.20
2023-04-30T04:25:49.788Z,1.90
2023-04-30T04:26:49.782Z,1.30
2023-04-30T04:27:49.778Z,1.30
2023-04-30T04:28:49.781Z,1.30
2023-04-30T04:29:49.777Z,1.30
2023-04-30T04:30:49.747Z,1.10
2023-04-30T04:31:49.758Z,1.10
2023-04-30T04:32:49.774Z,2.70
2023-04-30T04:33:49.757Z,1.50
2023-04-30T04:34:49.755Z,1.50
2023-04-30T04:35:49.761Z,0.90
2023-04-30T04:36:49.746Z,1.60
2023-04-30T04:37:49.738Z,0.90
2023-04-30T04:38:49.725Z,1.80
2023-04-30T04:39:49.748Z,1.90
2023-04-30T04:40:49.755Z,1.80
2023-04-30T04:41:49.720Z,2.70
2023-04-30T04:42:49.713Z,1.70
2023-04-30T04:43:49.713Z,1.20
2023-04-30T04:44:49.704Z,1.20
2023-04-30T04:45:49.746Z,1.70
2023-04-30T04:46:49.722Z,1.60
2023-04-30T04:47:49.767Z,1.20
2023-04-30T04:48:49.693Z,1.70
2023-04-30T04:49:49.715Z,1.60
2023-04-30T04:50:49.679Z,1.10
2023-04-30T04:51:49.815Z,1.60
2023-04-30T04:52:49.671Z,1.30
2023-04-30T04:53:49.688Z,1.60
2023-04-30T04:54:49.679Z,1.10
2023-04-30T04:55:49.684Z,1.30
2023-04-30T04:56:49.664Z,1.70
2023-04-30T04:57:49.667Z,1.10
2023-04-30T04:58:49.659Z,2.40
2023-04-30T04:59:49.688Z,2.30
2023-04-30T05:00:49.648Z,1.00
2023-04-30T05:01:49.740Z,1.00
2023-04-30T05:02:49.719Z,1.20
2023-04-30T05:03:50.020Z,1.20
2023-04-30T05:04:49.637Z,1.80
2023-04-30T05:05:49.635Z,4.80
2023-04-30T05:06:49.628Z,1.60
2023-04-30T05:07:49.823Z,1.00
2023-04-30T05:08:49.643Z,1.10
2023-04-30T05:09:49.637Z,2.60
2023-04-30T05:10:49.619Z,3.10
2023-04-30T05:11:49.625Z,1.50
2023-04-30T05:12:49.625Z,1.60
2023-04-30T05:13:49.606Z,1.00
2023-04-30T05:14:49.613Z,1.30
2023-04-30T05:15:49.631Z,1.20
2023-04-30T05:16:49.614Z,1.40
2023-04-30T05:17:49.662Z,1.10
2023-04-30T05:18:49.614Z,1.70
2023-04-30T05:19:49.598Z,1.10
2023-04-30T05:20:49.595Z,1.30
2023-04-30T05:21:49.596Z,1.90
2023-04-30T05:22:49.615Z,1.00
2023-04-30T05:23:49.613Z,2.10
2023-04-30T05:24:49.578Z,3.20
2023-04-30T05:25:49.589Z,1.40
2023-04-30T05:26:49.584Z,1.30
2023-04-30T05:27:49.569Z,0.90
2023-04-30T05:28:49.563Z,1.20
2023-04-30T05:29:49.576Z,1.20
2023-04-30T05:30:49.556Z,0.90
2023-04-30T05:31:49.617Z,1.20
2023-04-30T05:32:49.605Z,0.90
2023-04-30T05:33:49.560Z,1.30
2023-04-30T05:34:49.572Z,1.00
2023-04-30T05:35:49.553Z,1.10
2023-04-30T05:36:49.546Z,1.40
2023-04-30T05:37:49.564Z,1.50
2023-04-30T05:38:49.546Z,1.60
2023-04-30T05:39:49.556Z,1.00
2023-04-30T05:40:49.541Z,1.20
2023-04-30T05:41:50.708Z,1.40
2023-04-30T05:42:49.527Z,3.10
2023-04-30T05:43:49.540Z,2.20
2023-04-30T05:44:49.527Z,1.30
2023-04-30T05:45:49.574Z,1.60
2023-04-30T05:46:49.518Z,1.80
2023-04-30T05:47:49.526Z,1.50
2023-04-30T05:48:49.512Z,1.10
2023-04-30T05:49:49.532Z,0.90
2023-04-30T05:50:49.510Z,2.00
2023-04-30T05:51:49.526Z,1.00
2023-04-30T05:52:49.487Z,1.90
2023-04-30T05:53:49.525Z,1.70
2023-04-30T05:54:50.157Z,1.60
2023-04-30T05:55:49.522Z,2.90
2023-04-30T05:56:49.502Z,0.90
2023-04-30T05:57:49.479Z,1.10
2023-04-30T05:58:49.496Z,1.90
2023-04-30T05:59:49.511Z,1.60
2023-04-30T06:00:49.479Z,0.90
2023-04-30T06:01:49.560Z,1.20
2023-04-30T06:02:49.503Z,0.90
2023-04-30T06:03:49.497Z,1.50
2023-04-30T06:04:49.512Z,1.30
2023-04-30T06:05:49.673Z,1.10
2023-04-30T06:06:49.567Z,1.30
2023-04-30T06:07:49.463Z,7.50
2023-04-30T06:08:49.452Z,1.90
2023-04-30T06:09:49.471Z,2.40
2023-04-30T06:10:49.465Z,1.60
2023-04-30T06:11:49.580Z,2.50
2023-04-30T06:12:49.466Z,1.10
2023-04-30T06:13:49.464Z,1.20
2023-04-30T06:14:49.463Z,1.80
2023-04-30T06:15:49.455Z,2.40
2023-04-30T06:16:49.495Z,1.30
2023-04-30T06:17:49.454Z,2.10
2023-04-30T06:18:51.256Z,2.50
2023-04-30T06:19:49.443Z,1.80
2023-04-30T06:20:49.451Z,1.70
2023-04-30T06:21:49.445Z,1.20
2023-04-30T06:22:49.436Z,1.10
2023-04-30T06:23:49.440Z,1.10
2023-04-30T06:24:49.432Z,1.50
2023-04-30T06:25:49.418Z,1.00
2023-04-30T06:26:49.422Z,1.20
2023-04-30T06:27:49.449Z,1.10
2023-04-30T06:28:49.414Z,1.10
2023-04-30T06:29:49.411Z,2.60
2023-04-30T06:30:49.420Z,1.00
2023-04-30T06:31:49.427Z,2.40
2023-04-30T06:32:49.404Z,4.80
2023-04-30T06:33:49.414Z,1.00
2023-04-30T06:34:49.409Z,0.90
2023-04-30T06:35:49.407Z,1.00
2023-04-30T06:36:49.400Z,1.10
2023-04-30T06:37:49.398Z,4.10
2023-04-30T06:38:49.380Z,1.20
2023-04-30T06:39:49.408Z,1.80
2023-04-30T06:40:49.381Z,2.10
2023-04-30T06:41:49.391Z,2.10
2023-04-30T06:42:49.378Z,1.90
2023-04-30T06:43:49.393Z,2.10
2023-04-30T06:44:49.378Z,1.10
2023-04-30T06:45:49.417Z,1.10
2023-04-30T06:46:49.370Z,1.20
2023-04-30T06:47:49.381Z,2.00
2023-04-30T06:48:49.364Z,1.10
2023-04-30T06:49:49.382Z,1.30
2023-04-30T06:50:49.364Z,0.90
2023-04-30T06:51:49.380Z,5.80
2023-04-30T06:52:49.357Z,1.30
2023-04-30T06:53:49.341Z,1.10
2023-04-30T06:54:49.348Z,1.30
2023-04-30T06:55:49.347Z,9.10
2023-04-30T06:56:49.332Z,1.00
2023-04-30T06:57:49.340Z,0.90
2023-04-30T06:58:49.365Z,1.00
2023-04-30T06:59:49.368Z,1.30
2023-04-30T07:00:49.343Z,2.40
2023-04-30T07:01:49.377Z,1.10
2023-04-30T07:02:49.389Z,0.90
2023-04-30T07:03:49.587Z,1.40
2023-04-30T07:04:49.468Z,1.10
2023-04-30T07:05:49.318Z,1.40
2023-04-30T07:06:49.322Z,1.70
2023-04-30T07:07:49.330Z,1.30
2023-04-30T07:08:49.322Z,0.90
2023-04-30T07:09:51.529Z,1.80
2023-04-30T07:10:49.307Z,1.10
2023-04-30T07:11:49.320Z,1.70
2023-04-30T07:12:49.305Z,1.70
2023-04-30T07:13:49.297Z,1.30
2023-04-30T07:14:49.291Z,1.10
2023-04-30T07:15:49.314Z,1.20
2023-04-30T07:16:49.292Z,2.00
2023-04-30T07:17:49.349Z,0.90
2023-04-30T07:18:49.301Z,0.90
2023-04-30T07:19:49.305Z,1.00
2023-04-30T07:20:49.277Z,1.00
2023-04-30T07:21:49.279Z,0.90
2023-04-30T07:22:49.275Z,1.30
2023-04-30T07:23:49.265Z,0.90
2023-04-30T07:24:49.266Z,1.20
2023-04-30T07:25:49.279Z,1.30
2023-04-30T07:26:49.257Z,1.30
2023-04-30T07:27:49.239Z,11.80
2023-04-30T07:28:49.272Z,1.80
2023-04-30T07:29:49.254Z,1.10
2023-04-30T07:30:49.247Z,1.00
2023-04-30T07:31:49.311Z,0.90
2023-04-30T07:32:49.309Z,0.90
2023-04-30T07:33:49.236Z,1.20
2023-04-30T07:34:49.256Z,2.00
2023-04-30T07:35:49.260Z,1.40
2023-04-30T07:36:49.246Z,1.20
2023-04-30T07:37:49.232Z,3.70
2023-04-30T07:38:49.244Z,1.20
2023-04-30T07:39:49.286Z,1.50
2023-04-30T07:40:49.226Z,1.00
2023-04-30T07:41:49.233Z,1.90
2023-04-30T07:42:49.218Z,1.00
2023-04-30T07:43:49.244Z,1.00
2023-04-30T07:44:49.216Z,1.20
2023-04-30T07:45:49.253Z,2.20
2023-04-30T07:46:49.214Z,1.60
2023-04-30T07:47:49.297Z,1.70
2023-04-30T07:48:49.210Z,1.10
2023-04-30T07:49:49.419Z,1.10
2023-04-30T07:50:50.769Z,1.00
2023-04-30T07:51:49.201Z,1.10
2023-04-30T07:52:49.218Z,1.50
2023-04-30T07:53:49.189Z,1.80
2023-04-30T07:54:49.201Z,1.30
2023-04-30T07:55:49.187Z,1.00
2023-04-30T07:56:49.193Z,1.20
2023-04-30T07:57:49.205Z,1.00
2023-04-30T07:58:49.206Z,2.20
2023-04-30T07:59:51.370Z,2.10
2023-04-30T08:00:49.203Z,2.10
2023-04-30T08:01:49.215Z,2.30
2023-04-30T08:02:49.296Z,2.50
2023-04-30T08:03:49.342Z,5.10
2023-04-30T08:04:49.220Z,2.80
2023-04-30T08:05:49.177Z,4.40
2023-04-30T08:06:49.342Z,3.20
2023-04-30T08:07:49.191Z,3.00
2023-04-30T08:08:50.498Z,3.90
2023-04-30T08:09:49.182Z,7.20
2023-04-30T08:10:49.175Z,4.30
2023-04-30T08:11:49.191Z,4.90
2023-04-30T08:12:49.205Z,14.60
2023-04-30T08:13:49.178Z,34.90
2023-04-30T08:14:49.187Z,71.80
2023-04-30T08:15:49.163Z,54.10
2023-04-30T08:16:49.200Z,69.90
2023-04-30T08:17:49.267Z,54.70
2023-04-30T08:18:49.180Z,70.60
2023-04-30T08:19:49.200Z,57.00
2023-04-30T08:20:49.161Z,58.50
2023-04-30T08:21:49.173Z,59.20
2023-04-30T08:22:49.186Z,48.60
2023-04-30T08:23:49.155Z,39.40
2023-04-30T08:24:49.181Z,64.60
2023-04-30T08:25:49.160Z,64.80
2023-04-30T08:26:49.158Z,65.30
2023-04-30T08:27:49.179Z,47.40
2023-04-30T08:28:49.168Z,59.70
2023-04-30T08:29:49.181Z,48.50
2023-04-30T08:30:49.164Z,50.60
2023-04-30T08:31:49.207Z,25.00
2023-04-30T08:32:49.212Z,11.50
2023-04-30T08:33:49.155Z,16.10
2023-04-30T08:34:49.156Z,11.20
2023-04-30T08:35:49.191Z,11.50
2023-04-30T08:36:49.152Z,6.40
2023-04-30T08:37:49.175Z,4.90
2023-04-30T08:38:49.153Z,14.70
2023-04-30T08:39:49.149Z,13.30
2023-04-30T08:40:51.575Z,3.50
2023-04-30T08:41:49.130Z,4.20
2023-04-30T08:42:49.147Z,3.80
2023-04-30T08:43:49.137Z,5.20
2023-04-30T08:44:49.173Z,2.70
2023-04-30T08:45:49.154Z,2.90
2023-04-30T08:46:49.139Z,2.90
2023-04-30T08:47:49.152Z,3.40
2023-04-30T08:48:49.149Z,2.50
2023-04-30T08:49:49.138Z,2.50
2023-04-30T08:50:49.129Z,1.40
2023-04-30T08:51:49.146Z,2.50
2023-04-30T08:52:49.129Z,2.40
2023-04-30T08:53:49.134Z,1.20
2023-04-30T08:54:49.107Z,1.30
2023-04-30T08:55:49.149Z,1.60
2023-04-30T08:56:49.101Z,2.30
2023-04-30T08:57:49.120Z,1.20
2023-04-30T08:58:49.126Z,1.20
2023-04-30T08:59:49.122Z,1.70
2023-04-30T09:00:49.100Z,1.30
2023-04-30T09:01:50.592Z,1.40
2023-04-30T09:02:49.179Z,1.20
2023-04-30T09:03:49.211Z,3.80
2023-04-30T09:04:49.083Z,3.70
2023-04-30T09:05:49.089Z,2.50
2023-04-30T09:06:49.195Z,1.50
2023-04-30T09:08:02.414Z,4.10
2023-04-30T09:08:49.109Z,2.20
2023-04-30T09:09:49.089Z,2.00
2023-04-30T09:10:49.071Z,1.30
2023-04-30T09:11:49.068Z,4.30
2023-04-30T09:12:49.071Z,1.20
2023-04-30T09:13:49.073Z,1.70
2023-04-30T09:14:49.052Z,1.50
2023-04-30T09:15:49.103Z,1.90
2023-04-30T09:16:49.044Z,1.10
2023-04-30T09:17:49.077Z,1.00
2023-04-30T09:18:49.040Z,1.50
2023-04-30T09:19:49.032Z,1.50
2023-04-30T09:20:49.031Z,1.40
2023-04-30T09:21:49.034Z,1.20
2023-04-30T09:22:49.041Z,1.20
2023-04-30T09:23:49.045Z,2.20
2023-04-30T09:24:49.027Z,1.20
2023-04-30T09:25:49.014Z,1.70
2023-04-30T09:26:49.008Z,1.30
2023-04-30T09:27:49.006Z,2.00
2023-04-30T09:28:49.024Z,1.40
2023-04-30T09:29:49.008Z,4.10
2023-04-30T09:30:48.994Z,2.80
2023-04-30T09:31:49.089Z,2.00
2023-04-30T09:32:49.029Z,1.80
2023-04-30T09:33:48.984Z,1.50
2023-04-30T09:34:48.986Z,2.30
2023-04-30T09:35:48.994Z,1.60
2023-04-30T09:36:48.998Z,1.20
2023-04-30T09:37:48.978Z,0.90
2023-04-30T09:38:48.989Z,1.00
2023-04-30T09:39:49.006Z,2.20
2023-04-30T09:40:48.962Z,1.20
2023-04-30T09:41:48.981Z,1.50
2023-04-30T09:42:48.975Z,1.00
2023-04-30T09:43:48.975Z,1.00
2023-04-30T09:44:48.982Z,1.80
2023-04-30T09:45:48.966Z,1.20
2023-04-30T09:46:48.982Z,0.90
2023-04-30T09:47:49.014Z,2.40
2023-04-30T09:48:48.945Z,1.20
2023-04-30T09:49:48.950Z,1.20
2023-04-30T09:50:48.938Z,2.60
2023-04-30T09:51:48.930Z,1.10
2023-04-30T09:52:48.939Z,0.90
2023-04-30T09:53:48.927Z,1.80
2023-04-30T09:54:48.957Z,1.50
2023-04-30T09:55:48.943Z,1.20
2023-04-30T09:56:48.911Z,1.30
2023-04-30T09:57:48.921Z,2.20
2023-04-30T09:58:48.896Z,1.50
2023-04-30T09:59:48.895Z,1.30
2023-04-30T10:00:48.936Z,1.00
2023-04-30T10:01:48.914Z,1.70
2023-04-30T10:02:48.977Z,1.50
2023-04-30T10:03:48.919Z,1.30
2023-04-30T10:04:48.902Z,2.10
2023-04-30T10:05:48.898Z,1.30
2023-04-30T10:06:49.003Z,1.10
2023-04-30T10:07:48.883Z,1.00
2023-04-30T10:08:48.878Z,1.20
2023-04-30T10:09:48.878Z,1.30
2023-04-30T10:10:48.860Z,3.90
2023-04-30T10:11:48.897Z,1.00
2023-04-30T10:12:48.868Z,1.00
2023-04-30T10:13:48.858Z,2.20
2023-04-30T10:14:48.859Z,1.10
2023-04-30T10:15:48.859Z,2.30
2023-04-30T10:16:48.988Z,1.10
2023-04-30T10:17:48.909Z,2.70
2023-04-30T10:18:48.838Z,1.10
2023-04-30T10:19:48.848Z,0.90
2023-04-30T10:20:48.857Z,1.00
2023-04-30T10:21:48.832Z,1.00
2023-04-30T10:22:48.828Z,1.30
2023-04-30T10:23:48.831Z,1.10
2023-04-30T10:24:48.844Z,3.00
2023-04-30T10:25:48.844Z,0.90
2023-04-30T10:26:48.845Z,0.90
2023-04-30T10:27:48.819Z,0.90
2023-04-30T10:28:48.804Z,3.30
2023-04-30T10:29:48.817Z,0.90
2023-04-30T10:30:48.846Z,1.20
2023-04-30T10:31:48.835Z,0.90
2023-04-30T10:32:48.842Z,0.90
2023-04-30T10:33:48.785Z,0.90
2023-04-30T10:34:48.813Z,0.90
2023-04-30T10:35:48.786Z,1.00
2023-04-30T10:36:48.880Z,1.00
2023-04-30T10:37:48.769Z,1.00
2023-04-30T10:38:48.776Z,1.00
2023-04-30T10:39:48.790Z,1.00
2023-04-30T10:40:48.793Z,1.30
2023-04-30T10:41:48.758Z,1.10
2023-04-30T10:42:48.770Z,1.10
2023-04-30T10:43:48.805Z,1.00
2023-04-30T10:44:48.766Z,1.00
2023-04-30T10:45:48.801Z,1.10
2023-04-30T10:46:48.749Z,1.30
2023-04-30T10:47:48.809Z,1.00
2023-04-30T10:48:48.786Z,1.10
2023-04-30T10:49:48.734Z,1.70
2023-04-30T10:50:48.726Z,1.00
2023-04-30T10:51:48.739Z,1.20
2023-04-30T10:52:48.726Z,1.00
2023-04-30T10:53:48.718Z,1.20
2023-04-30T10:54:48.741Z,1.00
2023-04-30T10:55:48.700Z,1.10
2023-04-30T10:56:48.728Z,1.00
2023-04-30T10:57:48.698Z,1.00
2023-04-30T10:58:48.711Z,0.90
2023-04-30T10:59:48.810Z,1.50
2023-04-30T11:00:48.694Z,1.10
2023-04-30T11:01:48.735Z,1.10
2023-04-30T11:02:48.813Z,1.80
2023-04-30T11:03:48.685Z,1.00
2023-04-30T11:04:48.753Z,1.30
2023-04-30T11:05:48.669Z,1.00
2023-04-30T11:06:48.825Z,1.00
2023-04-30T11:07:48.668Z,1.30
2023-04-30T11:08:48.688Z,1.30
2023-04-30T11:09:48.682Z,1.00
2023-04-30T11:10:48.654Z,0.90
2023-04-30T11:11:48.648Z,1.00
2023-04-30T11:12:48.668Z,1.00
2023-04-30T11:13:48.640Z,1.10
2023-04-30T11:14:48.615Z,0.90
2023-04-30T11:15:48.800Z,1.10
2023-04-30T11:16:48.629Z,1.10
2023-04-30T11:17:48.647Z,1.30
2023-04-30T11:18:48.598Z,1.10
2023-04-30T11:19:48.651Z,1.00
2023-04-30T11:20:48.623Z,2.00
2023-04-30T11:21:48.590Z,1.00
2023-04-30T11:22:48.609Z,1.00
2023-04-30T11:23:48.581Z,1.10
2023-04-30T11:24:48.594Z,1.00
2023-04-30T11:25:48.570Z,1.00
2023-04-30T11:26:48.615Z,1.70
2023-04-30T11:27:48.572Z,1.20
2023-04-30T11:28:48.610Z,1.10
2023-04-30T11:29:48.560Z,1.00
2023-04-30T11:30:48.561Z,1.00
2023-04-30T11:31:48.608Z,1.00
2023-04-30T11:32:48.617Z,1.20
2023-04-30T11:33:48.554Z,1.00
2023-04-30T11:34:48.560Z,1.00
2023-04-30T11:35:48.527Z,0.90
2023-04-30T11:36:48.531Z,0.90
2023-04-30T11:37:48.529Z,1.00
2023-04-30T11:38:48.542Z,1.00
2023-04-30T11:39:48.523Z,1.00
2023-04-30T11:40:48.509Z,1.00
2023-04-30T11:41:48.510Z,1.20
2023-04-30T11:42:48.521Z,1.10
2023-04-30T11:43:48.520Z,1.00
2023-04-30T11:44:48.490Z,1.00
2023-04-30T11:45:48.498Z,1.00
2023-04-30T11:46:48.556Z,3.60
2023-04-30T11:47:48.590Z,1.00
2023-04-30T11:48:48.497Z,1.10
2023-04-30T11:49:48.487Z,1.00
2023-04-30T11:50:48.461Z,0.90
2023-04-30T11:51:48.493Z,0.90
2023-04-30T11:52:48.449Z,0.90
2023-04-30T11:53:48.448Z,1.10
2023-04-30T11:54:48.512Z,1.60
2023-04-30T11:55:48.462Z,0.90
2023-04-30T11:56:48.442Z,1.10
2023-04-30T11:57:48.437Z,1.30
2023-04-30T11:58:48.450Z,1.80
2023-04-30T11:59:48.434Z,1.20
2023-04-30T12:00:48.425Z,1.10
2023-04-30T12:01:48.472Z,1.20
2023-04-30T12:02:48.642Z,1.70
2023-04-30T12:03:48.645Z,1.10
2023-04-30T12:04:48.409Z,1.00
2023-04-30T12:05:48.414Z,0.90
2023-04-30T12:06:48.479Z,1.00
2023-04-30T12:07:48.403Z,1.50
2023-04-30T12:08:48.384Z,2.60
2023-04-30T12:09:48.384Z,1.00
2023-04-30T12:10:48.398Z,0.90
2023-04-30T12:11:48.369Z,1.00
2023-04-30T12:12:49.261Z,1.20
2023-04-30T12:13:48.370Z,1.20
2023-04-30T12:14:48.357Z,1.10
2023-04-30T12:15:48.363Z,0.90
2023-04-30T12:16:48.398Z,1.00
2023-04-30T12:17:48.388Z,1.10
2023-04-30T12:18:49.001Z,1.40
2023-04-30T12:19:48.367Z,4.80
2023-04-30T12:20:48.335Z,3.40
2023-04-30T12:21:48.335Z,1.80
2023-04-30T12:22:48.340Z,1.40
2023-04-30T12:23:48.333Z,1.30
2023-04-30T12:24:48.324Z,1.00
2023-04-30T12:25:48.331Z,1.60
2023-04-30T12:26:48.341Z,1.20
2023-04-30T12:27:48.301Z,1.90
2023-04-30T12:28:48.316Z,0.90
2023-04-30T12:29:48.312Z,1.00
2023-04-30T12:30:48.289Z,1.20
2023-04-30T12:31:48.378Z,1.00
2023-04-30T12:32:48.327Z,1.20
2023-04-30T12:33:48.289Z,1.80
2023-04-30T12:34:48.283Z,0.90
2023-04-30T12:35:48.300Z,1.50
2023-04-30T12:36:48.262Z,3.00
2023-04-30T12:37:48.269Z,1.50
2023-04-30T12:38:48.277Z,1.00
2023-04-30T12:39:48.257Z,1.30
2023-04-30T12:40:48.265Z,3.10
2023-04-30T12:41:48.245Z,0.90
2023-04-30T12:42:48.251Z,1.70
2023-04-30T12:43:48.253Z,1.10
2023-04-30T12:44:48.268Z,1.00
2023-04-30T12:45:48.385Z,0.90
2023-04-30T12:46:48.347Z,1.00
2023-04-30T12:47:48.301Z,0.90
2023-04-30T12:48:48.214Z,1.00
2023-04-30T12:49:48.219Z,1.00
2023-04-30T12:50:48.206Z,1.00
2023-04-30T12:51:48.238Z,1.00
2023-04-30T12:52:48.214Z,1.20
2023-04-30T12:53:48.188Z,1.00
2023-04-30T12:54:48.190Z,1.00
2023-04-30T12:55:48.183Z,0.90
2023-04-30T12:56:48.187Z,1.00
2023-04-30T12:57:48.197Z,0.90
2023-04-30T12:58:48.176Z,1.10
2023-04-30T12:59:48.181Z,0.90
2023-04-30T13:00:48.182Z,1.10
2023-04-30T13:01:48.224Z,0.90
2023-04-30T13:02:48.228Z,0.90
2023-04-30T13:03:48.223Z,1.10
2023-04-30T13:04:48.154Z,0.90
2023-04-30T13:05:48.143Z,1.00
2023-04-30T13:06:48.303Z,2.60
2023-04-30T13:07:48.164Z,1.00
2023-04-30T13:08:57.797Z,1.10
2023-04-30T13:09:48.158Z,1.00
2023-04-30T13:10:48.129Z,1.00
2023-04-30T13:11:48.133Z,1.00
2023-04-30T13:12:48.124Z,1.00
2023-04-30T13:13:48.123Z,1.00
2023-04-30T13:14:48.118Z,0.90
2023-04-30T13:15:48.122Z,1.30
2023-04-30T13:16:48.127Z,0.90
2023-04-30T13:17:48.099Z,0.90